Mineral, TX (78125)

1:39 PM CST on March 03, 2015 (GMT -0600)
Beeville | Change Station
CLOSE
Current Station
Airport
Location: Beeville,
Elevation: 269 ft
Nearby Weather Stations

Elev 269 ft 28.37 °N, 97.80 °W | Updated 1 hour ago

Fog
Fog
54 °F
Feels Like 54 °F
N
0
Wind Variable Wind from North

Today
High -- | Low -- °F
--% Chance of Precip.
Yesterday
High -- | Low -- °F
Precip. -- in
6:54 AM 6:32 PM
Waxing Gibbous, 97% visible
Pressure 29.99 in
Visibility 0.8 miles
Clouds Overcast 200 ft
Dew Point 54 °F
Humidity 100%
Rainfall 0.00 in
Snow Depth Not available.
UV 2 out of 12
Pollen 9.30 out of 12
Air Quality Not available.
Flu Activity Not available.
METAR KBEA 031750Z AUTO 00000KT 3/4SM BR OVC002 13/13 A2999 RMK AO2 T01250125 10125 20095

More Conditions Fewer Conditions

Pressure 29.99 in
Visibility 0.8 miles
Clouds Overcast 200 ft
Dew Point 54 °F
Humidity 100%
Rainfall 0.00 in
Snow Depth Not available.
UV 2 out of 12
Pollen 9.30 out of 12
Air Quality Not available.
Flu Activity Not available.
METAR KBEA 031750Z AUTO 00000KT 3/4SM BR OVC002 13/13 A2999 RMK AO2 T01250125 10125 20095

More Conditions Fewer Conditions

Nowcast | as of 12:29 PM CST on March 3, 2015

Through the late afternoon...patchy fog continues to affect portions of south Texas...especially across the coastal Bend and the northern locations from Cotulla east toward Victoria. Improvements are being made with visibilities ranging around 3 to 5 miles...however isolated locations may continue to experience visibilities of 1 to 2 miles through 4 PM. For mariners...dense fog will continue to affect the bays and nearshore waters through this evening. Drivers and mariners should take the appropriate precautions.

×

10-Day Weather Forecast

Almanac

Astronomy

Mar. 03, 2015 Rise Set
Actual Time
Civil Twilight
Nautical Twilight
Astronomical Twilight
Moon
Length of Visible Light
Length of Day
Tomorrow will be .
, % of the Moon is Illuminated

Today's Extremes

State Highs State Lows

Community

WunderPhotos

Upload Photos

1,802,207 photos uploaded!

WunderBlogs® & News

Nearby

Air Quality

  Air Quality AQ Index Pollutant
Not available.

Snow Depth

Station Depth Elevation

Earthquake Activity

City Distance Mag. Time & Date
Minimum magnitude displayed is 2.5.

Coastal Water Temperatures

Place Temperature

Nearby Weather Stations